Time;durP1;ratioP1;P1;durP2;ratioP2;P2;SDS_P1;SDS_P2;PMS_P1;PMS_P2;Temp;Humidity;BMP_temperature;BMP_pressure;BME280_temperature;BME280_humidity;BME280_pressure;Samples;Min_cycle;Max_cycle;Signal;HPM_P1;HPM_P2
2022/10/17 00:01:33;;;;;;;8.55;6.53;;;14.10;94.80;;;;;;5053073;28;20029;-51
2022/10/17 00:03:58;;;;;;;23.05;9.73;;;14.10;94.80;;;;;;5053778;28;20495;-48
2022/10/17 00:06:24;;;;;;;9.38;6.90;;;14.00;94.80;;;;;;5053501;28;20025;-48
2022/10/17 00:08:50;;;;;;;9.30;6.25;;;14.00;94.90;;;;;;5053384;28;20033;-50
2022/10/17 00:11:19;;;;;;;10.95;6.63;;;14.00;94.90;;;;;;5053251;28;20422;-48
2022/10/17 00:13:46;;;;;;;9.95;6.93;;;14.10;94.90;;;;;;5053695;28;20028;-49
2022/10/17 00:16:12;;;;;;;10.18;6.65;;;14.10;94.90;;;;;;5053307;28;20033;-47
2022/10/17 00:18:38;;;;;;;9.70;6.07;;;14.10;95.00;;;;;;5051885;28;20025;-47
2022/10/17 00:21:04;;;;;;;8.18;5.43;;;14.00;95.00;;;;;;5053180;28;20033;-52
2022/10/17 00:23:30;;;;;;;7.35;5.85;;;14.00;95.00;;;;;;5052996;28;20100;-51
2022/10/17 00:26:04;;;;;;;7.65;5.68;;;14.00;95.00;;;;;;5035269;28;20111;-53
2022/10/17 00:28:30;;;;;;;9.70;6.80;;;14.00;95.10;;;;;;5053488;28;20103;-50
2022/10/17 00:31:01;;;;;;;8.38;6.18;;;14.00;95.10;;;;;;5053157;28;20165;-51
2022/10/17 00:33:27;;;;;;;10.98;6.65;;;14.00;95.10;;;;;;5053120;28;20029;-50
2022/10/17 00:36:25;;;;;;;7.97;5.78;;;13.90;95.10;;;;;;5053012;28;20465;-50
2022/10/17 00:38:54;;;;;;;7.50;5.90;;;13.90;95.20;;;;;;5052903;28;20033;-50
2022/10/17 00:41:23;;;;;;;8.02;6.63;;;13.80;95.20;;;;;;5053054;28;20021;-48
2022/10/17 00:43:58;;;;;;;10.52;7.10;;;13.90;95.20;;;;;;5052797;28;20029;-51
2022/10/17 00:46:35;;;;;;;8.57;6.75;;;13.90;95.20;;;;;;5052778;28;20075;-49
2022/10/17 00:49:07;;;;;;;17.90;6.80;;;13.80;95.20;;;;;;5052837;28;20029;-48
2022/10/17 00:51:52;;;;;;;12.75;6.43;;;13.80;95.30;;;;;;5052482;28;20118;-48
2022/10/17 00:54:23;;;;;;;11.52;7.95;;;13.80;95.30;;;;;;5052981;28;20013;-47
2022/10/17 00:56:49;;;;;;;12.35;6.88;;;13.80;95.30;;;;;;5051406;28;20064;-48
2022/10/17 00:59:18;;;;;;;9.00;6.68;;;13.80;95.30;;;;;;5052700;28;20466;-51
2022/10/17 01:01:55;;;;;;;9.60;7.32;;;13.90;95.40;;;;;;5051301;28;20064;-47
2022/10/17 01:04:21;;;;;;;13.05;7.65;;;14.00;95.50;;;;;;5053072;28;20036;-48
2022/10/17 01:06:47;;;;;;;12.38;7.22;;;14.00;95.40;;;;;;5052442;28;20060;-48
2022/10/17 01:09:12;;;;;;;13.55;8.60;;;14.00;95.50;;;;;;5052512;28;20017;-49
2022/10/17 01:11:59;;;;;;;11.02;7.20;;;14.00;95.50;;;;;;5052654;28;20036;-48
2022/10/17 01:14:45;;;;;;;10.70;7.43;;;14.00;95.50;;;;;;5055794;28;20025;-52
2022/10/17 01:17:29;;;;;;;17.35;7.00;;;14.00;95.50;;;;;;5056832;28;20029;-49
2022/10/17 01:20:21;;;;;;;13.25;8.77;;;14.00;95.60;;;;;;5056728;28;20474;-48
2022/10/17 01:23:12;;;;;;;13.55;7.35;;;14.10;95.60;;;;;;5056646;28;20155;-49
2022/10/17 01:25:46;;;;;;;;;;;14.10;95.60;;;;;;5056974;28;20484;-48
2022/10/17 01:28:27;;;;;;;13.82;8.00;;;14.10;95.60;;;;;;5056350;28;19912;-49
2022/10/17 01:31:09;;;;;;;10.35;7.43;;;14.00;95.60;;;;;;5056796;28;20393;-48
2022/10/17 01:34:02;;;;;;;12.50;7.85;;;14.00;95.60;;;;;;5056518;28;20021;-48
2022/10/17 01:36:36;;;;;;;11.32;8.27;;;14.10;95.60;;;;;;5056233;28;20029;-48
2022/10/17 01:39:07;;;;;;;14.65;7.60;;;14.00;95.60;;;;;;5056419;28;20373;-47
2022/10/17 01:41:51;;;;;;;9.43;7.15;;;14.00;95.60;;;;;;5056054;28;20358;-49
2022/10/17 01:44:27;;;;;;;11.48;7.45;;;14.00;95.60;;;;;;5056412;28;20078;-50
2022/10/17 01:47:03;;;;;;;14.30;7.10;;;13.90;95.70;;;;;;5056244;28;20087;-48
2022/10/17 01:49:31;;;;;;;8.98;6.90;;;13.90;95.70;;;;;;5056206;28;20024;-48
2022/10/17 01:52:02;;;;;;;15.95;7.68;;;14.00;95.70;;;;;;5055748;28;20127;-52
2022/10/17 01:54:54;;;;;;;12.32;9.27;;;13.90;95.70;;;;;;5056254;28;20562;-48
2022/10/17 01:57:42;;;;;;;11.02;7.05;;;13.90;95.70;;;;;;5054620;28;20029;-48
2022/10/17 02:00:13;;;;;;;11.90;7.97;;;14.00;95.70;;;;;;5055739;28;20132;-47
2022/10/17 02:02:42;;;;;;;10.68;7.75;;;13.90;95.70;;;;;;5055945;28;20044;-48
2022/10/17 02:05:08;;;;;;;11.57;7.45;;;13.80;95.80;;;;;;5055709;28;20118;-48
2022/10/17 02:07:34;;;;;;;11.07;8.18;;;13.80;95.80;;;;;;5055916;28;20151;-47
2022/10/17 02:10:00;;;;;;;15.43;8.65;;;13.80;95.80;;;;;;5055558;28;20115;-47
2022/10/17 02:12:55;;;;;;;13.88;7.97;;;13.90;95.80;;;;;;5055683;28;20036;-48
2022/10/17 02:15:30;;;;;;;9.68;7.43;;;13.80;95.80;;;;;;5055817;28;20017;-49
2022/10/17 02:18:28;;;;;;;12.60;7.85;;;13.80;95.80;;;;;;5055520;28;20060;-50
2022/10/17 02:21:26;;;;;;;10.75;7.20;;;13.80;95.80;;;;;;5055737;28;20376;-48
2022/10/17 02:24:19;;;;;;;12.27;8.73;;;13.80;95.80;;;;;;5054096;28;20037;-47
2022/10/17 02:27:00;;;;;;;12.48;7.28;;;13.70;95.80;;;;;;5054376;28;20033;-48
2022/10/17 02:29:30;;;;;;;11.15;7.13;;;13.70;95.80;;;;;;5055306;28;20028;-48
2022/10/17 02:32:04;;;;;;;12.30;8.10;;;13.60;95.90;;;;;;5055129;28;20128;-50
2022/10/17 02:34:33;;;;;;;10.45;7.07;;;13.70;95.90;;;;;;5055085;28;20036;-48
2022/10/17 02:37:01;;;;;;;9.57;7.53;;;13.60;95.90;;;;;;5055093;28;20036;-48
2022/10/17 02:39:29;;;;;;;9.82;7.65;;;13.60;95.90;;;;;;5055172;28;20069;-48
2022/10/17 02:41:57;;;;;;;13.73;8.30;;;13.60;95.90;;;;;;5054984;28;20021;-51
2022/10/17 02:44:24;;;;;;;11.40;8.88;;;13.50;95.90;;;;;;5055065;28;20028;-49
2022/10/17 02:46:58;;;;;;;10.90;7.90;;;13.50;95.90;;;;;;5054846;28;20021;-50
2022/10/17 02:49:30;;;;;;;13.05;7.82;;;13.50;95.90;;;;;;5055099;28;20461;-48
2022/10/17 02:52:11;;;;;;;16.75;9.05;;;13.50;95.90;;;;;;5053464;28;20474;-51
2022/10/17 02:54:56;;;;;;;12.07;8.40;;;13.40;95.90;;;;;;5054858;28;20377;-47
2022/10/17 02:58:01;;;;;;;13.07;8.77;;;13.50;96.00;;;;;;5055227;28;20373;-47
2022/10/17 03:00:28;;;;;;;13.05;8.00;;;13.50;95.90;;;;;;5052676;28;20031;-49
2022/10/17 03:02:54;;;;;;;13.48;9.07;;;13.40;95.90;;;;;;5049145;28;20076;-47
2022/10/17 03:05:28;;;;;;;12.35;8.73;;;13.40;96.00;;;;;;5054831;28;20385;-50
2022/10/17 03:07:54;;;;;;;12.25;8.68;;;13.40;96.00;;;;;;5054486;28;20307;-46
2022/10/17 03:10:20;;;;;;;11.45;8.35;;;13.40;96.00;;;;;;5054485;28;20033;-49
2022/10/17 03:12:46;;;;;;;10.25;7.53;;;13.40;96.00;;;;;;5054414;28;20493;-50
2022/10/17 03:15:12;;;;;;;12.80;8.90;;;13.40;96.00;;;;;;5054425;28;20109;-49
2022/10/17 03:17:37;;;;;;;15.70;9.30;;;13.30;96.00;;;;;;5054452;28;20056;-47
2022/10/17 03:20:05;;;;;;;11.60;8.65;;;13.30;96.00;;;;;;5054623;28;20108;-49
2022/10/17 03:22:31;;;;;;;14.68;8.52;;;13.40;96.10;;;;;;5054454;28;20032;-48
2022/10/17 03:24:57;;;;;;;16.45;8.25;;;13.40;96.00;;;;;;5054252;28;20067;-48
2022/10/17 03:27:23;;;;;;;15.85;8.85;;;13.40;96.10;;;;;;5054108;28;20057;-49
2022/10/17 03:29:48;;;;;;;14.32;8.32;;;13.40;96.10;;;;;;5052654;28;20067;-50
2022/10/17 03:32:14;;;;;;;10.65;8.23;;;13.50;96.10;;;;;;5053953;28;20043;-48
2022/10/17 03:34:39;;;;;;;14.35;8.30;;;13.40;96.10;;;;;;5054192;28;20100;-48
2022/10/17 03:37:05;;;;;;;13.02;9.43;;;13.30;96.00;;;;;;5053415;28;20100;-48
2022/10/17 03:39:31;;;;;;;17.77;8.32;;;13.30;96.10;;;;;;5053929;28;20023;-48
2022/10/17 03:41:56;;;;;;;16.35;8.88;;;13.40;96.10;;;;;;5052700;28;20168;-51
2022/10/17 03:44:22;;;;;;;13.88;8.40;;;13.40;96.10;;;;;;5054201;28;20021;-51
2022/10/17 03:46:48;;;;;;;13.35;8.40;;;13.30;96.10;;;;;;5054107;28;20032;-53
2022/10/17 03:49:13;;;;;;;15.25;9.95;;;13.40;96.10;;;;;;5054056;28;20033;-48
2022/10/17 03:51:39;;;;;;;18.33;8.65;;;13.40;96.10;;;;;;5053737;28;20436;-47
2022/10/17 03:54:04;;;;;;;12.43;7.95;;;13.30;96.10;;;;;;5053919;28;20025;-49
2022/10/17 03:56:30;;;;;;;12.27;8.45;;;13.30;96.10;;;;;;5053899;28;20439;-48
2022/10/17 03:58:56;;;;;;;13.77;8.20;;;13.30;96.10;;;;;;5052590;28;20028;-48
2022/10/17 04:01:22;;;;;;;14.65;8.77;;;13.30;96.10;;;;;;5053678;28;20025;-49
2022/10/17 04:03:49;;;;;;;13.52;7.68;;;13.30;96.10;;;;;;5053817;28;20056;-48
2022/10/17 04:06:15;;;;;;;13.90;9.85;;;13.30;96.10;;;;;;5054359;28;20109;-48
2022/10/17 04:08:41;;;;;;;16.42;7.53;;;13.30;96.10;;;;;;5054292;28;20021;-49
2022/10/17 04:11:08;;;;;;;15.60;10.20;;;13.30;96.10;;;;;;5054175;28;20021;-50
2022/10/17 04:13:35;;;;;;;12.30;8.98;;;13.30;96.10;;;;;;5054276;28;20465;-48
2022/10/17 04:16:05;;;;;;;11.23;7.57;;;13.30;96.10;;;;;;5054017;28;20055;-48
2022/10/17 04:18:32;;;;;;;13.68;9.85;;;13.40;96.20;;;;;;5054081;28;20044;-48
2022/10/17 04:21:01;;;;;;;11.07;8.35;;;13.30;96.10;;;;;;5054364;28;20380;-50
2022/10/17 04:23:27;;;;;;;9.60;7.07;;;13.30;96.10;;;;;;5054218;28;20108;-49
2022/10/17 04:25:59;;;;;;;13.25;7.93;;;13.30;96.10;;;;;;5054303;28;20511;-50
2022/10/17 04:28:26;;;;;;;11.20;7.80;;;13.30;96.10;;;;;;5052908;28;20032;-51
2022/10/17 04:30:57;;;;;;;9.93;7.85;;;13.30;96.10;;;;;;5052328;28;20117;-48
2022/10/17 04:33:23;;;;;;;12.20;8.98;;;13.30;96.10;;;;;;5053354;28;20499;-47
2022/10/17 04:35:59;;;;;;;14.75;8.27;;;13.30;96.10;;;;;;5053502;28;20033;-48
2022/10/17 04:38:25;;;;;;;15.75;8.95;;;13.30;96.10;;;;;;5053049;28;20102;-49
2022/10/17 04:40:51;;;;;;;11.90;9.45;;;13.30;96.10;;;;;;5053080;28;20037;-49
2022/10/17 04:43:16;;;;;;;11.48;6.88;;;13.20;96.10;;;;;;5053156;28;20032;-48
2022/10/17 04:45:42;;;;;;;13.95;8.88;;;13.30;96.10;;;;;;5053055;28;20036;-47
2022/10/17 04:48:08;;;;;;;16.00;9.63;;;13.20;96.10;;;;;;5053241;28;20552;-51
2022/10/17 04:50:33;;;;;;;16.75;9.85;;;13.30;96.20;;;;;;5053235;28;20029;-49
2022/10/17 04:52:59;;;;;;;15.20;9.80;;;13.30;96.20;;;;;;5052915;28;20444;-49
2022/10/17 04:55:25;;;;;;;18.42;10.50;;;13.30;96.20;;;;;;5053001;28;20028;-50
2022/10/17 04:57:51;;;;;;;15.00;9.98;;;13.30;96.20;;;;;;5052628;28;20033;-49
2022/10/17 05:00:16;;;;;;;15.13;9.82;;;13.40;96.10;;;;;;5052404;28;20074;-49
2022/10/17 05:02:42;;;;;;;14.02;9.57;;;13.30;96.20;;;;;;5052929;28;20377;-48
2022/10/17 05:05:08;;;;;;;18.75;11.30;;;13.30;96.20;;;;;;5052268;28;20499;-49
2022/10/17 05:07:34;;;;;;;24.58;11.20;;;13.30;96.20;;;;;;5051069;28;20048;-50
2022/10/17 05:09:59;;;;;;;15.27;9.95;;;13.30;96.20;;;;;;5052458;28;20025;-49
2022/10/17 05:12:25;;;;;;;17.17;11.02;;;13.40;96.20;;;;;;5052107;28;20025;-52
2022/10/17 05:14:51;;;;;;;18.95;10.75;;;13.40;96.20;;;;;;5052293;28;20053;-47
2022/10/17 05:17:16;;;;;;;11.95;10.07;;;13.40;96.20;;;;;;5052629;28;20462;-48
2022/10/17 05:19:42;;;;;;;15.18;9.38;;;13.50;96.20;;;;;;5052850;28;20075;-48
2022/10/17 05:22:08;;;;;;;20.75;13.73;;;13.40;96.20;;;;;;5051120;28;20127;-52
2022/10/17 05:24:33;;;;;;;20.42;11.45;;;13.40;96.20;;;;;;5052160;28;20033;-48
2022/10/17 05:26:59;;;;;;;18.25;10.55;;;13.50;96.20;;;;;;5052176;28;20120;-51
2022/10/17 05:29:25;;;;;;;19.98;10.48;;;13.50;96.20;;;;;;5052155;28;20060;-48
2022/10/17 05:31:50;;;;;;;25.63;12.32;;;13.60;96.30;;;;;;5052439;28;20029;-47
2022/10/17 05:34:16;;;;;;;17.33;9.75;;;13.60;96.30;;;;;;5052129;28;20066;-51
2022/10/17 05:36:42;;;;;;;16.63;10.48;;;13.70;96.20;;;;;;5052209;28;20017;-48
2022/10/17 05:39:07;;;;;;;21.50;11.15;;;13.80;96.30;;;;;;5052309;28;20025;-50
2022/10/17 05:41:33;;;;;;;18.23;11.27;;;13.80;96.30;;;;;;5052631;28;20061;-48
2022/10/17 16:35:27;;;;;;;8.02;5.55;;;17.90;89.80;;;;;;5127444;27;20359;-49
2022/10/17 16:37:53;;;;;;;7.90;5.22;;;17.90;89.90;;;;;;5110202;28;20023;-48
2022/10/17 16:40:19;;;;;;;6.82;5.30;;;18.00;89.90;;;;;;5111226;28;20426;-49
2022/10/17 16:42:45;;;;;;;9.20;5.63;;;18.00;89.60;;;;;;5111164;28;20023;-50
2022/10/17 16:45:21;;;;;;;5.80;5.07;;;17.90;89.70;;;;;;5110960;28;20056;-51
2022/10/17 16:47:48;;;;;;;11.43;4.78;;;17.90;89.30;;;;;;5110879;28;20382;-53
2022/10/17 16:50:14;;;;;;;6.45;4.43;;;17.80;89.30;;;;;;5111114;28;20073;-48
2022/10/17 16:52:40;;;;;;;6.82;5.18;;;17.80;89.30;;;;;;5111084;28;20077;-49
2022/10/17 16:55:06;;;;;;;7.55;5.25;;;17.80;89.30;;;;;;5110560;28;20032;-48
2022/10/17 16:57:32;;;;;;;10.60;5.07;;;17.80;89.40;;;;;;5110843;28;20348;-50
2022/10/17 16:59:58;;;;;;;5.50;4.43;;;17.80;89.30;;;;;;5110714;28;20020;-49
2022/10/17 17:02:24;;;;;;;8.45;4.82;;;17.80;89.30;;;;;;5110507;28;20051;-48
2022/10/17 17:04:49;;;;;;;10.65;5.00;;;17.80;89.40;;;;;;5110466;28;20522;-48
2022/10/17 17:07:17;;;;;;;6.47;5.63;;;17.80;89.40;;;;;;5110319;28;20073;-49
2022/10/17 17:09:42;;;;;;;9.52;6.10;;;17.80;89.40;;;;;;5110253;28;20027;-50
2022/10/17 17:12:08;;;;;;;7.65;5.78;;;17.70;89.40;;;;;;5110900;28;20475;-51
2022/10/17 17:14:34;;;;;;;8.35;5.68;;;17.70;89.70;;;;;;5110513;28;20185;-48
2022/10/17 17:16:59;;;;;;;10.02;5.97;;;17.70;89.60;;;;;;5109955;28;20024;-51
2022/10/17 17:19:25;;;;;;;9.85;6.35;;;17.60;89.70;;;;;;5110459;28;20464;-52
2022/10/17 17:21:51;;;;;;;9.10;6.60;;;17.50;90.10;;;;;;5110190;28;20383;-48
2022/10/17 17:24:19;;;;;;;10.05;7.10;;;17.40;90.30;;;;;;5108634;28;20024;-50
2022/10/17 17:26:49;;;;;;;9.23;6.85;;;17.50;90.40;;;;;;5110237;28;20540;-50
2022/10/17 17:29:14;;;;;;;11.25;6.00;;;17.60;90.20;;;;;;5108184;28;20103;-47
2022/10/17 17:31:40;;;;;;;11.35;6.22;;;17.60;90.20;;;;;;5109569;28;20065;-49
2022/10/17 17:34:06;;;;;;;10.95;6.78;;;17.60;90.10;;;;;;5109499;28;20055;-49
2022/10/17 17:36:35;;;;;;;12.00;8.15;;;17.70;89.90;;;;;;5109801;28;20024;-49
2022/10/17 17:39:04;;;;;;;8.63;7.03;;;17.50;90.10;;;;;;5109994;28;20420;-49
2022/10/17 17:41:29;;;;;;;12.30;7.63;;;17.50;90.20;;;;;;5109757;28;20016;-49
2022/10/17 17:43:56;;;;;;;9.70;6.10;;;17.40;90.30;;;;;;5109780;28;20045;-52
2022/10/17 17:46:23;;;;;;;11.75;6.03;;;17.30;90.70;;;;;;5096701;28;20078;-50
2022/10/17 17:48:49;;;;;;;9.05;6.00;;;17.30;90.70;;;;;;5096169;28;20020;-53
2022/10/17 17:51:17;;;;;;;7.47;5.65;;;17.30;90.90;;;;;;5096222;28;20111;-49
2022/10/17 17:53:44;;;;;;;9.63;5.80;;;17.30;91.20;;;;;;5095871;28;20046;-49
2022/10/17 17:56:15;;;;;;;8.30;5.43;;;17.20;90.90;;;;;;5095886;28;20491;-49
2022/10/17 17:58:44;;;;;;;9.23;5.70;;;17.20;91.10;;;;;;5095506;28;20107;-51
2022/10/17 18:01:17;;;;;;;14.13;5.45;;;17.30;90.80;;;;;;5095517;28;20109;-49
2022/10/17 18:03:43;;;;;;;10.48;5.68;;;17.30;90.50;;;;;;5095903;28;20128;-50
2022/10/17 18:06:09;;;;;;;8.25;6.10;;;17.30;90.50;;;;;;5095616;28;20020;-50
2022/10/17 18:08:35;;;;;;;14.30;7.70;;;17.30;90.60;;;;;;5095477;28;20415;-49
2022/10/17 18:11:01;;;;;;;9.52;5.57;;;17.30;90.50;;;;;;5095530;28;20410;-50
2022/10/17 18:13:27;;;;;;;10.32;5.10;;;17.30;90.40;;;;;;5077592;28;20028;-49
2022/10/17 18:16:00;;;;;;;5.95;4.97;;;17.30;90.40;;;;;;5095083;28;20024;-49
2022/10/17 18:18:27;;;;;;;9.40;6.82;;;17.30;90.50;;;;;;5094546;28;20119;-49
2022/10/17 18:20:54;;;;;;;7.43;5.60;;;17.30;90.50;;;;;;5095569;28;20052;-48
2022/10/17 18:23:23;;;;;;;10.55;5.45;;;17.30;90.70;;;;;;5094076;28;20028;-49
2022/10/17 18:25:56;;;;;;;10.57;5.95;;;17.30;90.80;;;;;;5093940;28;20024;-49
2022/10/17 18:28:23;;;;;;;9.05;5.35;;;17.30;90.80;;;;;;5095480;28;20472;-49
2022/10/17 18:30:49;;;;;;;13.45;6.60;;;17.30;90.70;;;;;;5095036;28;20039;-49
2022/10/17 18:33:15;;;;;;;11.43;6.15;;;17.30;90.80;;;;;;5095378;28;20048;-50
2022/10/17 18:35:41;;;;;;;9.00;6.22;;;17.30;90.90;;;;;;5094589;28;20020;-48
2022/10/17 18:38:06;;;;;;;16.23;6.85;;;17.30;90.90;;;;;;5095588;28;20024;-49
2022/10/17 18:40:33;;;;;;;13.13;6.38;;;17.30;91.10;;;;;;5095986;28;20020;-51
2022/10/17 18:42:59;;;;;;;7.93;6.45;;;17.30;90.80;;;;;;5094641;28;20344;-50
2022/10/17 18:45:24;;;;;;;12.32;6.55;;;17.10;91.00;;;;;;5095405;28;20021;-50
2022/10/17 18:47:52;;;;;;;15.90;7.60;;;17.20;91.20;;;;;;5095069;28;20035;-49
2022/10/17 18:50:19;;;;;;;13.80;7.88;;;17.10;91.30;;;;;;5095686;28;20463;-52
2022/10/17 18:52:51;;;;;;;15.10;9.02;;;17.00;91.40;;;;;;5077052;28;20174;-51
2022/10/17 18:55:19;;;;;;;9.98;7.07;;;17.00;91.60;;;;;;5094663;28;20024;-49
2022/10/17 18:57:47;;;;;;;14.55;7.40;;;17.00;91.70;;;;;;5094015;28;20072;-49
2022/10/17 19:00:14;;;;;;;12.75;7.30;;;17.10;91.60;;;;;;5093515;28;20024;-49
2022/10/17 19:02:39;;;;;;;10.88;8.15;;;17.00;91.70;;;;;;5094071;28;20154;-48
2022/10/17 19:05:05;;;;;;;14.60;8.80;;;16.90;91.80;;;;;;5094563;28;20457;-51
2022/10/17 19:07:31;;;;;;;14.25;7.28;;;16.80;91.90;;;;;;5093211;28;20352;-50
2022/10/17 19:09:57;;;;;;;11.60;6.85;;;16.80;92.20;;;;;;5094275;28;20149;-49
2022/10/17 19:12:22;;;;;;;11.05;6.90;;;16.80;92.40;;;;;;5094879;28;20479;-49
2022/10/17 19:14:49;;;;;;;13.32;7.50;;;16.70;92.50;;;;;;5094239;28;20047;-54
2022/10/17 19:17:15;;;;;;;13.35;7.38;;;16.70;92.70;;;;;;5094837;28;20023;-50
2022/10/17 19:19:42;;;;;;;16.15;8.95;;;16.70;92.90;;;;;;5094610;28;20020;-50
2022/10/17 19:22:08;;;;;;;11.52;6.93;;;16.80;92.60;;;;;;5076253;28;20021;-50
2022/10/17 19:24:34;;;;;;;11.82;7.75;;;16.80;92.50;;;;;;5094084;28;20028;-49
2022/10/17 19:27:02;;;;;;;13.43;6.57;;;16.80;92.40;;;;;;5094143;28;20043;-47
2022/10/17 19:29:32;;;;;;;12.13;7.38;;;16.80;92.40;;;;;;5094274;28;20016;-51
2022/10/17 19:31:58;;;;;;;9.40;7.45;;;16.80;92.40;;;;;;5092592;28;20031;-50
2022/10/17 19:34:27;;;;;;;10.18;7.38;;;16.80;92.20;;;;;;5092530;28;20048;-48
2022/10/17 19:36:54;;;;;;;12.43;6.53;;;16.90;92.20;;;;;;5094299;28;20038;-50
2022/10/17 19:39:22;;;;;;;15.55;8.52;;;16.80;91.90;;;;;;5093994;28;20032;-48
2022/10/17 19:41:48;;;;;;;24.25;9.10;;;16.80;91.90;;;;;;5093854;28;20082;-50
2022/10/17 19:44:14;;;;;;;15.15;8.38;;;16.80;91.90;;;;;;5092895;28;20024;-51
2022/10/17 19:46:43;;;;;;;16.13;8.05;;;16.80;92.30;;;;;;5093591;28;20028;-49
2022/10/17 19:49:10;;;;;;;13.88;7.55;;;16.80;92.00;;;;;;5093376;28;20036;-48
2022/10/17 19:51:35;;;;;;;9.48;6.47;;;16.70;92.30;;;;;;5094064;28;20031;-51
2022/10/17 19:54:01;;;;;;;10.30;6.97;;;16.70;92.30;;;;;;5093441;28;20024;-48
2022/10/17 19:56:30;;;;;;;9.55;6.63;;;16.60;92.40;;;;;;5093994;28;20093;-48
2022/10/17 19:58:56;;;;;;;12.80;6.53;;;16.60;92.50;;;;;;5093564;28;20020;-48
2022/10/17 20:01:27;;;;;;;11.02;6.30;;;16.60;92.70;;;;;;5093710;28;20024;-49
2022/10/17 20:03:54;;;;;;;11.32;7.10;;;16.70;92.60;;;;;;5094096;28;20035;-52
2022/10/17 20:06:21;;;;;;;16.42;7.32;;;16.60;92.60;;;;;;5093890;28;20031;-49
2022/10/17 20:08:46;;;;;;;10.70;6.57;;;16.60;92.70;;;;;;5093834;28;20046;-48
2022/10/17 20:11:18;;;;;;;11.85;6.05;;;16.70;92.80;;;;;;5093741;28;20024;-50
2022/10/17 20:13:44;;;;;;;11.45;7.10;;;16.80;92.50;;;;;;5093170;28;20016;-49
2022/10/17 20:16:16;;;;;;;11.07;6.82;;;16.70;92.30;;;;;;5093567;28;20115;-50
2022/10/17 20:18:42;;;;;;;11.63;6.93;;;16.60;92.40;;;;;;5092864;28;20080;-48
2022/10/17 20:21:11;;;;;;;12.40;6.60;;;16.50;92.50;;;;;;5092875;28;20032;-48
2022/10/17 20:23:38;;;;;;;12.32;6.82;;;16.60;92.60;;;;;;5093376;28;20384;-49
2022/10/17 20:26:06;;;;;;;10.68;7.07;;;16.70;92.40;;;;;;5093328;28;20045;-51
2022/10/17 20:28:32;;;;;;;8.77;6.70;;;16.70;92.40;;;;;;5093277;28;20597;-50
2022/10/17 20:30:58;;;;;;;11.48;6.57;;;16.60;92.30;;;;;;5092852;28;20103;-49
2022/10/17 20:33:25;;;;;;;11.82;7.45;;;16.60;92.30;;;;;;5092615;28;20040;-49
2022/10/17 20:35:51;;;;;;;11.90;6.90;;;16.50;92.30;;;;;;5092949;28;20037;-49
2022/10/17 20:38:17;;;;;;;9.45;6.53;;;16.50;92.30;;;;;;5093345;28;20099;-49
2022/10/17 20:40:43;;;;;;;11.02;6.05;;;16.50;92.40;;;;;;5093046;28;20073;-51
2022/10/17 20:43:11;;;;;;;8.93;5.78;;;16.40;92.30;;;;;;5091862;28;20106;-48
2022/10/17 20:45:39;;;;;;;11.07;6.15;;;16.40;92.30;;;;;;5092955;28;20020;-49
2022/10/17 20:48:05;;;;;;;11.93;6.05;;;16.50;92.20;;;;;;5093616;28;20042;-51
2022/10/17 20:50:36;;;;;;;9.18;5.60;;;16.50;91.90;;;;;;5092940;28;20463;-48
2022/10/17 20:53:03;;;;;;;12.63;6.25;;;16.50;91.80;;;;;;5091452;28;20020;-51
2022/10/17 20:55:29;;;;;;;9.80;5.82;;;16.50;91.80;;;;;;5092874;28;20020;-48
2022/10/17 20:57:55;;;;;;;12.40;6.00;;;16.40;91.70;;;;;;5091551;28;20027;-50
2022/10/17 21:00:21;;;;;;;15.77;6.28;;;16.40;91.70;;;;;;5091589;28;20021;-49
2022/10/17 21:02:46;;;;;;;14.35;5.35;;;16.40;91.70;;;;;;5092707;28;20044;-49
2022/10/17 21:05:12;;;;;;;9.18;5.75;;;16.40;91.70;;;;;;5092832;28;20039;-48
2022/10/17 21:07:38;;;;;;;7.20;4.78;;;16.40;91.60;;;;;;5092788;28;20035;-49
2022/10/17 21:10:04;;;;;;;7.28;4.00;;;16.30;91.60;;;;;;5092871;28;20030;-52
2022/10/17 21:12:30;;;;;;;6.55;4.05;;;16.20;91.80;;;;;;5093166;28;20047;-48
2022/10/17 21:14:55;;;;;;;7.15;4.80;;;16.20;91.80;;;;;;5092948;28;20027;-51
2022/10/17 21:17:21;;;;;;;9.25;3.55;;;16.20;91.70;;;;;;5093378;28;20027;-51
2022/10/17 21:19:47;;;;;;;5.03;3.35;;;16.30;91.70;;;;;;5093258;28;20410;-51
2022/10/17 21:22:13;;;;;;;5.63;3.78;;;16.20;91.20;;;;;;5096882;28;20028;-48
2022/10/17 21:24:39;;;;;;;6.10;3.78;;;16.30;91.30;;;;;;5097044;28;20024;-49
2022/10/17 21:27:12;;;;;;;5.80;2.90;;;16.30;90.80;;;;;;5097219;28;20020;-50
2022/10/17 21:29:37;;;;;;;7.00;3.92;;;16.30;90.80;;;;;;5080046;28;20107;-53
2022/10/17 21:32:03;;;;;;;4.63;2.85;;;16.20;90.70;;;;;;5096719;28;20055;-50
2022/10/17 21:34:30;;;;;;;7.05;3.65;;;16.20;90.80;;;;;;5096361;28;20047;-52
2022/10/17 21:36:56;;;;;;;8.73;3.75;;;16.20;90.70;;;;;;5096883;28;20020;-53
2022/10/17 21:39:23;;;;;;;6.40;3.50;;;16.20;90.70;;;;;;5097024;28;20024;-51
2022/10/17 21:41:49;;;;;;;5.25;3.92;;;16.10;90.60;;;;;;5096923;28;20024;-51
2022/10/17 21:44:23;;;;;;;9.45;6.43;;;16.00;90.80;;;;;;5097984;28;20618;-48
2022/10/17 21:46:49;;;;;;;10.32;4.97;;;16.00;91.00;;;;;;5095433;28;20028;-48
2022/10/17 21:49:17;;;;;;;19.60;4.10;;;15.90;91.20;;;;;;5096609;28;20031;-49
2022/10/17 21:51:43;;;;;;;7.70;4.00;;;15.90;91.30;;;;;;5096981;28;20036;-48
2022/10/17 21:54:09;;;;;;;10.52;4.68;;;15.80;91.40;;;;;;5095328;28;20480;-51
2022/10/17 21:56:35;;;;;;;7.82;4.63;;;16.00;91.40;;;;;;5096907;28;20028;-51
2022/10/17 21:59:02;;;;;;;12.30;5.20;;;16.10;91.10;;;;;;5096767;28;20089;-51
2022/10/17 22:01:37;;;;;;;14.13;5.28;;;16.10;90.90;;;;;;5095601;28;20020;-50
2022/10/17 22:04:06;;;;;;;7.40;5.57;;;16.00;90.90;;;;;;5097094;28;20036;-50
2022/10/17 22:06:34;;;;;;;10.10;5.15;;;15.90;91.20;;;;;;5095220;28;20383;-55
2022/10/17 22:09:00;;;;;;;16.13;6.93;;;15.80;91.50;;;;;;5095938;28;20085;-50
2022/10/17 22:11:28;;;;;;;12.27;6.03;;;15.80;91.60;;;;;;5095851;28;20123;-51
2022/10/17 22:13:57;;;;;;;13.05;5.57;;;15.80;91.60;;;;;;5096039;28;20499;-48
2022/10/17 22:16:23;;;;;;;17.63;7.60;;;15.80;91.70;;;;;;5095655;28;20063;-46
2022/10/17 22:18:49;;;;;;;15.68;5.30;;;15.80;91.60;;;;;;5095890;28;20058;-48
2022/10/17 22:21:20;;;;;;;5.72;4.22;;;15.80;91.60;;;;;;5095450;28;20024;-47
2022/10/17 22:23:52;;;;;;;7.85;4.07;;;15.80;91.70;;;;;;5095320;28;20048;-47
2022/10/17 22:26:18;;;;;;;4.70;3.42;;;15.80;91.60;;;;;;5095701;28;20031;-49
2022/10/17 22:28:44;;;;;;;9.13;3.60;;;15.70;91.60;;;;;;5095497;28;20475;-47
2022/10/17 22:31:09;;;;;;;6.20;4.07;;;15.70;91.80;;;;;;5095197;28;20059;-47
2022/10/17 22:33:36;;;;;;;9.63;4.47;;;15.80;92.00;;;;;;5095168;28;20043;-47
2022/10/17 22:36:03;;;;;;;7.50;4.00;;;15.70;92.00;;;;;;5095448;28;20024;-47
2022/10/17 22:38:29;;;;;;;9.45;3.85;;;15.70;92.10;;;;;;5093688;28;20020;-48
2022/10/17 22:40:55;;;;;;;6.82;3.85;;;15.70;92.20;;;;;;5095089;28;20357;-47
2022/10/17 22:43:20;;;;;;;8.25;3.95;;;15.70;92.20;;;;;;5093790;28;20077;-51
2022/10/17 22:45:57;;;;;;;8.93;4.57;;;15.80;92.50;;;;;;5094982;28;20028;-47
2022/10/17 22:48:27;;;;;;;8.02;3.65;;;15.70;92.00;;;;;;5094874;28;20035;-48
2022/10/17 22:50:53;;;;;;;5.07;3.22;;;15.70;92.10;;;;;;5094672;28;20032;-48
2022/10/17 22:53:25;;;;;;;10.98;4.15;;;15.70;92.00;;;;;;5094813;28;20032;-48
2022/10/17 22:56:08;;;;;;;12.70;5.45;;;15.70;92.00;;;;;;5093461;28;20013;-47
2022/10/17 22:58:34;;;;;;;8.32;4.45;;;15.60;92.10;;;;;;5094768;28;20024;-50
2022/10/17 23:01:01;;;;;;;10.45;3.97;;;15.60;92.10;;;;;;5094495;28;20035;-48
2022/10/17 23:03:28;;;;;;;6.75;3.80;;;15.70;92.10;;;;;;5094480;28;20031;-47
2022/10/17 23:05:54;;;;;;;4.85;3.63;;;15.60;92.20;;;;;;5094389;28;20056;-49
2022/10/17 23:08:20;;;;;;;5.03;3.53;;;15.70;92.40;;;;;;5094599;28;20416;-48
2022/10/17 23:10:46;;;;;;;9.05;4.13;;;15.60;92.20;;;;;;5094457;28;20107;-48
2022/10/17 23:13:12;;;;;;;7.43;4.10;;;15.70;92.40;;;;;;5093031;28;20028;-48
2022/10/17 23:15:38;;;;;;;8.15;4.18;;;15.70;92.30;;;;;;5093105;28;20054;-47
2022/10/17 23:18:04;;;;;;;5.72;3.95;;;15.70;92.10;;;;;;5094390;28;20073;-49
2022/10/17 23:20:30;;;;;;;6.53;4.35;;;15.70;92.20;;;;;;5094537;28;20024;-50
2022/10/17 23:22:57;;;;;;;7.40;4.55;;;15.80;92.00;;;;;;5094271;28;20028;-47
2022/10/17 23:25:23;;;;;;;8.35;4.72;;;15.70;92.00;;;;;;5092985;28;20032;-47
2022/10/17 23:27:49;;;;;;;13.10;3.83;;;15.80;92.00;;;;;;5094291;28;20048;-48
2022/10/17 23:30:15;;;;;;;6.55;4.07;;;15.70;91.90;;;;;;5094129;28;20066;-49
2022/10/17 23:32:41;;;;;;;8.30;3.72;;;15.70;92.00;;;;;;5093973;28;20028;-48
2022/10/17 23:35:07;;;;;;;9.32;3.58;;;15.70;91.90;;;;;;5093722;28;20055;-47
2022/10/17 23:37:33;;;;;;;5.72;4.07;;;15.60;92.00;;;;;;5094023;28;20032;-48
2022/10/17 23:39:59;;;;;;;9.60;4.00;;;15.60;92.10;;;;;;5094424;28;20376;-47